createdAt,value
2019-05-02T00:00:01.248Z,7.92
2019-05-02T00:01:13.935Z,7.91
2019-05-02T00:02:23.978Z,7.88
2019-05-02T00:03:27.425Z,7.86
2019-05-02T00:04:32.247Z,7.85
2019-05-02T00:05:36.947Z,7.84
2019-05-02T00:06:42.835Z,7.82
2019-05-02T00:07:47.634Z,7.81
2019-05-02T00:08:52.256Z,7.77
2019-05-02T00:09:57.363Z,7.76
2019-05-02T00:11:02.940Z,7.76
2019-05-02T00:12:11.661Z,7.77
2019-05-02T00:13:16.439Z,7.73
2019-05-02T00:14:21.222Z,7.72
2019-05-02T00:15:26.591Z,7.74
2019-05-02T00:16:31.296Z,7.71
2019-05-02T00:17:36.172Z,7.67
2019-05-02T00:18:41.119Z,7.63
2019-05-02T00:19:49.934Z,7.65
2019-05-02T00:20:52.031Z,7.65
2019-05-02T00:21:56.487Z,7.65
2019-05-02T00:23:00.922Z,7.66
2019-05-02T00:24:07.477Z,7.63
2019-05-02T00:25:15.917Z,7.59
2019-05-02T00:26:18.779Z,7.57
2019-05-02T00:27:23.948Z,7.52
2019-05-02T00:28:28.449Z,7.52
2019-05-02T00:29:33.550Z,7.51
2019-05-02T00:30:38.053Z,7.48
2019-05-02T00:31:46.956Z,7.46
2019-05-02T00:32:53.261Z,7.47
2019-05-02T00:33:55.391Z,7.49
2019-05-02T00:34:59.848Z,7.46
2019-05-02T00:36:04.447Z,7.43
2019-05-02T00:37:08.884Z,7.43
2019-05-02T00:38:14.484Z,7.41
2019-05-02T00:39:19.049Z,7.44
2019-05-02T00:40:25.602Z,7.44
2019-05-02T00:41:33.211Z,7.47
2019-05-02T00:42:35.839Z,7.50
2019-05-02T00:43:40.278Z,7.48
2019-05-02T00:44:47.040Z,7.49
2019-05-02T00:45:55.029Z,7.54
2019-05-02T00:46:58.616Z,7.57
2019-05-02T00:48:04.716Z,7.60
2019-05-02T00:49:09.225Z,7.64
2019-05-02T00:50:13.872Z,7.59
2019-05-02T00:51:21.943Z,7.66
2019-05-02T00:52:24.440Z,7.69
2019-05-02T00:53:28.968Z,7.63
2019-05-02T00:54:33.404Z,7.66
2019-05-02T00:55:37.857Z,7.59
2019-05-02T00:56:44.171Z,7.58
2019-05-02T00:57:50.881Z,7.54
2019-05-02T00:58:54.948Z,7.55
2019-05-02T00:59:59.382Z,7.57
2019-05-02T01:01:24.228Z,7.49
2019-05-02T01:02:48.518Z,7.48
2019-05-02T01:03:54.621Z,7.47
2019-05-02T01:05:02.872Z,7.43
2019-05-02T01:06:05.265Z,7.44
2019-05-02T01:07:10.078Z,7.44
2019-05-02T01:08:14.871Z,7.41
2019-05-02T01:09:19.309Z,7.43
2019-05-02T01:10:23.817Z,7.46
2019-05-02T01:11:32.239Z,7.46
2019-05-02T01:12:34.669Z,7.45
2019-05-02T01:13:39.130Z,7.47
2019-05-02T01:14:43.562Z,7.49
2019-05-02T01:15:48.002Z,7.49
2019-05-02T01:16:54.456Z,7.48
2019-05-02T01:18:01.130Z,7.43
2019-05-02T01:19:06.127Z,7.40
2019-05-02T01:20:10.704Z,7.45
2019-05-02T01:21:15.164Z,7.52
2019-05-02T01:22:19.666Z,7.52
2019-05-02T01:23:27.743Z,7.52
2019-05-02T01:24:34.269Z,7.51
2019-05-02T01:25:36.781Z,7.52
2019-05-02T01:26:42.861Z,7.59
2019-05-02T01:28:07.209Z,7.54
2019-05-02T01:29:16.111Z,7.54
2019-05-02T01:30:29.201Z,7.53
2019-05-02T01:31:35.274Z,7.50
2019-05-02T01:32:46.860Z,7.56
2019-05-02T01:34:13.096Z,7.51
2019-05-02T01:35:16.867Z,7.53
2019-05-02T01:36:22.954Z,7.56
2019-05-02T01:37:31.724Z,7.57
2019-05-02T01:38:40.516Z,7.58
2019-05-02T01:39:45.290Z,7.56
2019-05-02T01:40:53.223Z,7.58
2019-05-02T01:42:00.079Z,7.55
2019-05-02T01:43:24.050Z,7.54
2019-05-02T01:44:31.044Z,7.58
2019-05-02T01:45:33.651Z,7.62
2019-05-02T01:46:38.090Z,7.58
2019-05-02T01:47:42.802Z,7.59
2019-05-02T01:48:47.805Z,7.65
2019-05-02T01:49:57.343Z,7.64
2019-05-02T01:50:58.781Z,7.66
2019-05-02T01:52:03.215Z,7.69
2019-05-02T01:53:08.006Z,7.68
2019-05-02T01:54:12.822Z,7.64
2019-05-02T01:55:21.195Z,7.68
2019-05-02T01:56:28.468Z,7.68
2019-05-02T01:57:32.116Z,7.76
2019-05-02T01:58:36.558Z,7.75
2019-05-02T01:59:41.011Z,7.75
2019-05-02T02:00:45.990Z,7.72
2019-05-02T02:01:53.082Z,7.69
2019-05-02T02:02:57.012Z,7.72
2019-05-02T02:04:01.456Z,7.69
2019-05-02T02:05:07.760Z,7.72
2019-05-02T02:06:12.187Z,7.74
2019-05-02T02:07:19.974Z,7.76
2019-05-02T02:08:27.278Z,7.71
2019-05-02T02:09:28.952Z,7.72
2019-05-02T02:10:33.359Z,7.74
2019-05-02T02:11:37.794Z,7.73
2019-05-02T02:13:02.192Z,7.78
2019-05-02T02:13:48.359Z,7.75
2019-05-02T02:14:53.646Z,7.78
2019-05-02T02:16:00.237Z,7.83
2019-05-02T02:17:05.088Z,7.89
2019-05-02T02:18:09.920Z,7.92
2019-05-02T02:19:22.166Z,7.86
2019-05-02T02:20:33.904Z,7.91
2019-05-02T02:21:42.698Z,7.83
2019-05-02T02:22:48.065Z,7.84
2019-05-02T02:23:54.149Z,7.84
2019-05-02T02:25:16.755Z,7.87
2019-05-02T02:26:22.843Z,7.82
2019-05-02T02:27:27.276Z,7.84
2019-05-02T02:28:32.348Z,7.72
2019-05-02T02:29:39.076Z,7.78
2019-05-02T02:30:44.351Z,7.77
2019-05-02T02:31:49.058Z,7.77
2019-05-02T02:32:53.504Z,7.82
2019-05-02T02:33:57.952Z,7.83
2019-05-02T02:35:03.609Z,7.82
2019-05-02T02:36:08.534Z,7.72
2019-05-02T02:37:15.145Z,7.78
2019-05-02T02:38:19.105Z,7.84
2019-05-02T02:39:23.888Z,7.83
2019-05-02T02:40:33.687Z,7.81
2019-05-02T02:41:34.858Z,7.76
2019-05-02T02:42:39.315Z,7.75
2019-05-02T02:43:45.832Z,7.76
2019-05-02T02:44:52.280Z,7.80
2019-05-02T02:46:11.656Z,7.80
2019-05-02T02:47:18.977Z,7.77
2019-05-02T02:48:22.229Z,7.78
2019-05-02T02:49:27.027Z,7.78
2019-05-02T02:50:36.882Z,7.75
2019-05-02T02:51:37.623Z,7.71
2019-05-02T02:52:44.637Z,7.79
2019-05-02T02:53:48.206Z,7.78
2019-05-02T02:54:52.664Z,7.80
2019-05-02T02:56:01.805Z,7.81
2019-05-02T02:57:03.783Z,7.82
2019-05-02T02:58:08.294Z,7.76
2019-05-02T02:59:19.643Z,7.74
2019-05-02T03:00:19.044Z,7.70
2019-05-02T03:01:29.069Z,7.71
2019-05-02T03:02:30.109Z,7.75
2019-05-02T03:03:35.423Z,7.72
2019-05-02T03:04:43.998Z,7.76
2019-05-02T03:05:46.806Z,7.78
2019-05-02T03:06:51.246Z,7.79
2019-05-02T03:07:59.503Z,7.75
2019-05-02T03:09:05.968Z,7.71
2019-05-02T03:10:10.485Z,7.72
2019-05-02T03:11:22.765Z,7.74
2019-05-02T03:12:24.334Z,7.76
2019-05-02T03:13:30.412Z,7.75
2019-05-02T03:14:41.156Z,7.78
2019-05-02T03:15:44.613Z,7.78
2019-05-02T03:16:49.615Z,7.81
2019-05-02T03:17:59.977Z,7.82
2019-05-02T03:19:01.368Z,7.76
2019-05-02T03:20:07.067Z,7.74
2019-05-02T03:21:20.079Z,7.76
2019-05-02T03:22:20.342Z,7.74
2019-05-02T03:23:24.844Z,7.74
2019-05-02T03:24:30.255Z,7.73
2019-05-02T03:25:49.967Z,7.75
2019-05-02T03:26:41.615Z,7.78
2019-05-02T03:27:46.059Z,7.80
2019-05-02T03:28:57.286Z,7.79
2019-05-02T03:29:57.280Z,7.80
2019-05-02T03:31:22.081Z,7.84
2019-05-02T03:32:30.116Z,7.87
2019-05-02T03:33:14.509Z,7.89
2019-05-02T03:34:18.947Z,7.82
2019-05-02T03:35:40.491Z,7.88
2019-05-02T03:36:35.792Z,7.86
2019-05-02T03:37:35.710Z,7.85
2019-05-02T03:38:40.213Z,7.84
2019-05-02T03:39:49.395Z,7.85
2019-05-02T03:40:51.159Z,7.88
2019-05-02T03:42:03.138Z,7.88
2019-05-02T03:43:02.092Z,7.83
2019-05-02T03:44:11.071Z,7.89
2019-05-02T03:45:13.020Z,7.92
2019-05-02T03:46:20.654Z,7.92
2019-05-02T03:47:23.689Z,7.97
2019-05-02T03:48:28.186Z,7.89
2019-05-02T03:49:32.976Z,7.89
2019-05-02T03:50:38.501Z,7.94
2019-05-02T03:51:43.034Z,7.95
2019-05-02T03:52:47.565Z,7.95
2019-05-02T03:53:52.011Z,7.94
2019-05-02T03:54:56.437Z,8.01
2019-05-02T03:56:10.716Z,7.97
2019-05-02T03:57:07.034Z,7.90
2019-05-02T03:58:14.134Z,7.94
2019-05-02T03:59:17.687Z,7.96
2019-05-02T04:00:24.334Z,7.93
2019-05-02T04:01:28.285Z,7.95
2019-05-02T04:02:32.787Z,7.98
2019-05-02T04:03:41.053Z,7.95
2019-05-02T04:04:44.334Z,7.95
2019-05-02T04:05:48.906Z,8.00
2019-05-02T04:06:54.930Z,8.00
2019-05-02T04:07:59.587Z,8.00
2019-05-02T04:09:06.960Z,8.01
2019-05-02T04:10:13.512Z,7.96
2019-05-02T04:11:21.042Z,8.03
2019-05-02T04:12:25.716Z,8.05
2019-05-02T04:13:36.070Z,8.07
2019-05-02T04:14:38.746Z,8.10
2019-05-02T04:15:45.931Z,8.12
2019-05-02T04:16:55.239Z,8.14
2019-05-02T04:17:57.343Z,8.11
2019-05-02T04:19:02.915Z,8.09
2019-05-02T04:20:09.444Z,8.16
2019-05-02T04:21:14.961Z,8.14
2019-05-02T04:22:19.502Z,8.17
2019-05-02T04:23:27.896Z,8.12
2019-05-02T04:24:30.714Z,8.11
2019-05-02T04:25:35.590Z,8.17
2019-05-02T04:26:52.655Z,8.16
2019-05-02T04:27:47.294Z,8.10
2019-05-02T04:28:52.266Z,8.11
2019-05-02T04:30:10.162Z,8.09
2019-05-02T04:31:04.642Z,8.15
2019-05-02T04:32:12.003Z,8.16
2019-05-02T04:33:15.925Z,8.16
2019-05-02T04:34:20.430Z,8.22
2019-05-02T04:35:28.739Z,8.19
2019-05-02T04:36:31.456Z,8.19
2019-05-02T04:37:41.339Z,8.12
2019-05-02T04:38:47.636Z,8.22
2019-05-02T04:39:49.351Z,8.15
2019-05-02T04:40:54.601Z,8.20
2019-05-02T04:42:05.338Z,8.19
2019-05-02T04:43:10.191Z,8.28
2019-05-02T04:44:11.342Z,8.18
2019-05-02T04:45:28.429Z,8.16
2019-05-02T04:46:26.994Z,8.22
2019-05-02T04:47:29.050Z,8.24
2019-05-02T04:48:34.746Z,8.32
2019-05-02T04:49:39.835Z,8.32
2019-05-02T04:50:48.284Z,8.28
2019-05-02T04:52:04.489Z,8.28
2019-05-02T04:52:59.339Z,8.20
2019-05-02T04:54:04.391Z,8.18
2019-05-02T04:55:19.784Z,8.27
2019-05-02T04:56:18.297Z,8.29
2019-05-02T04:57:29.229Z,8.29
2019-05-02T04:58:33.435Z,8.32
2019-05-02T04:59:34.127Z,8.38
2019-05-02T05:00:39.357Z,8.37
2019-05-02T05:01:49.829Z,8.41
2019-05-02T05:02:53.110Z,8.37
2019-05-02T05:04:02.634Z,8.35
2019-05-02T05:05:03.794Z,8.34
2019-05-02T05:06:12.137Z,8.31
2019-05-02T05:07:17.763Z,8.30
2019-05-02T05:08:26.355Z,8.33
2019-05-02T05:09:28.176Z,8.33
2019-05-02T05:10:40.194Z,8.36
2019-05-02T05:11:38.743Z,8.38
2019-05-02T05:12:43.195Z,8.38
2019-05-02T05:13:48.053Z,8.33
2019-05-02T05:14:52.554Z,8.34
2019-05-02T05:15:57.417Z,8.45
2019-05-02T05:17:02.586Z,8.44
2019-05-02T05:18:12.619Z,8.46
2019-05-02T05:19:13.174Z,8.53
2019-05-02T05:20:18.341Z,8.49
2019-05-02T05:21:24.697Z,8.48
2019-05-02T05:22:29.057Z,8.56
2019-05-02T05:23:59.578Z,8.54
2019-05-02T05:25:17.692Z,8.46
2019-05-02T05:26:22.643Z,8.50
2019-05-02T05:27:27.552Z,8.51
2019-05-02T05:28:35.092Z,8.56
2019-05-02T05:29:38.152Z,8.59
2019-05-02T05:30:45.286Z,8.61
2019-05-02T05:31:48.725Z,8.51
2019-05-02T05:32:53.183Z,8.48
2019-05-02T05:33:57.973Z,8.45
2019-05-02T05:35:03.440Z,8.47
2019-05-02T05:36:08.679Z,8.46
2019-05-02T05:37:13.604Z,8.48
2019-05-02T05:38:18.314Z,8.53
2019-05-02T05:39:23.720Z,8.53
2019-05-02T05:40:31.828Z,8.58
2019-05-02T05:41:34.283Z,8.56
2019-05-02T05:42:38.716Z,8.56
2019-05-02T05:43:44.831Z,8.53
2019-05-02T05:44:49.300Z,8.62
2019-05-02T05:46:01.343Z,8.48
2019-05-02T05:46:59.867Z,8.63
2019-05-02T05:48:04.706Z,8.70
2019-05-02T05:49:12.409Z,8.71
2019-05-02T05:50:17.512Z,8.68
2019-05-02T05:51:21.504Z,8.79
2019-05-02T05:52:27.138Z,8.85
2019-05-02T05:53:31.668Z,8.84
2019-05-02T05:54:38.347Z,8.97
2019-05-02T05:55:42.227Z,8.92
2019-05-02T05:56:48.162Z,8.93
2019-05-02T05:57:59.704Z,8.85
2019-05-02T05:58:59.349Z,8.82
2019-05-02T06:00:11.989Z,8.81
2019-05-02T06:01:13.586Z,8.82
2019-05-02T06:02:18.462Z,8.86
2019-05-02T06:03:23.032Z,8.86
2019-05-02T06:04:32.619Z,8.89
2019-05-02T06:05:39.696Z,8.88
2019-05-02T06:06:40.098Z,8.98
2019-05-02T06:07:45.006Z,8.95
2019-05-02T06:08:54.201Z,8.94
2019-05-02T06:09:56.187Z,9.04
2019-05-02T06:11:00.617Z,9.08
2019-05-02T06:12:05.133Z,9.04
2019-05-02T06:13:11.006Z,9.00
2019-05-02T06:14:19.910Z,9.07
2019-05-02T06:15:22.116Z,9.07
2019-05-02T06:16:26.551Z,9.12
2019-05-02T06:17:31.316Z,9.16
2019-05-02T06:18:36.405Z,9.21
2019-05-02T06:19:41.973Z,9.24
2019-05-02T06:20:47.491Z,9.36
2019-05-02T06:21:52.233Z,9.28
2019-05-02T06:23:00.026Z,9.26
2019-05-02T06:24:02.825Z,9.31
2019-05-02T06:25:09.827Z,9.20
2019-05-02T06:26:15.548Z,9.23
2019-05-02T06:27:20.958Z,9.10
2019-05-02T06:28:26.439Z,9.22
2019-05-02T06:29:30.893Z,9.25
2019-05-02T06:30:35.711Z,9.34
2019-05-02T06:31:43.056Z,9.35
2019-05-02T06:32:50.131Z,9.28
2019-05-02T06:33:52.473Z,9.27
2019-05-02T06:34:56.931Z,9.26
2019-05-02T06:36:02.517Z,9.26
2019-05-02T06:37:08.117Z,9.32
2019-05-02T06:38:13.541Z,9.36
2019-05-02T06:39:17.991Z,9.38
2019-05-02T06:40:22.776Z,9.44
2019-05-02T06:41:27.395Z,9.41
2019-05-02T06:42:32.688Z,9.37
2019-05-02T06:43:41.212Z,9.39
2019-05-02T06:44:44.118Z,9.37
2019-05-02T06:45:49.522Z,9.42
2019-05-02T06:46:59.210Z,9.41
2019-05-02T06:48:01.458Z,9.46
2019-05-02T06:49:06.863Z,9.52
2019-05-02T06:50:12.302Z,9.56
2019-05-02T06:51:19.537Z,9.54
2019-05-02T06:52:27.319Z,9.57
2019-05-02T06:53:28.984Z,9.50
2019-05-02T06:54:33.816Z,9.45
2019-05-02T06:55:38.711Z,9.45
2019-05-02T06:56:47.816Z,9.42
2019-05-02T06:57:51.707Z,9.42
2019-05-02T06:58:55.589Z,9.36
2019-05-02T07:00:00.046Z,9.39
2019-05-02T07:01:04.883Z,9.36
2019-05-02T07:02:09.315Z,9.40
2019-05-02T07:03:13.818Z,9.40
2019-05-02T07:04:22.890Z,9.43
2019-05-02T07:05:27.164Z,9.44
2019-05-02T07:06:41.946Z,9.43
2019-05-02T07:07:38.359Z,9.47
2019-05-02T07:08:43.116Z,9.50
2019-05-02T07:09:47.678Z,9.53
2019-05-02T07:10:56.033Z,9.53
2019-05-02T07:12:01.353Z,9.48
2019-05-02T07:13:10.928Z,9.48
2019-05-02T07:14:13.688Z,9.38
2019-05-02T07:15:28.390Z,9.51
2019-05-02T07:16:38.542Z,9.45
2019-05-02T07:17:48.085Z,9.39
2019-05-02T07:18:54.156Z,9.44
2019-05-02T07:20:06.667Z,9.42
2019-05-02T07:21:12.201Z,9.40
2019-05-02T07:22:17.679Z,9.40
2019-05-02T07:23:22.112Z,9.37
2019-05-02T07:24:30.849Z,9.46
2019-05-02T07:25:33.846Z,9.45
2019-05-02T07:26:38.658Z,9.48
2019-05-02T07:27:43.471Z,9.52
2019-05-02T07:28:47.918Z,9.56
2019-05-02T07:29:57.846Z,9.62
2019-05-02T07:30:58.671Z,9.69
2019-05-02T07:32:03.105Z,9.74
2019-05-02T07:33:07.539Z,9.66
2019-05-02T07:34:13.011Z,9.66
2019-05-02T07:35:19.143Z,9.64
2019-05-02T07:36:24.641Z,9.64
2019-05-02T07:37:29.087Z,9.73
2019-05-02T07:38:33.525Z,9.65
2019-05-02T07:39:41.000Z,9.80
2019-05-02T07:40:48.115Z,9.72
2019-05-02T07:41:52.043Z,9.74
2019-05-02T07:42:56.488Z,9.72
2019-05-02T07:44:00.944Z,9.67
2019-05-02T07:45:09.454Z,9.74
2019-05-02T07:46:16.134Z,9.65
2019-05-02T07:47:20.055Z,9.76
2019-05-02T07:48:24.774Z,9.78
2019-05-02T07:49:32.483Z,9.78
2019-05-02T07:50:35.375Z,9.72
2019-05-02T07:51:39.975Z,9.75
2019-05-02T07:52:44.774Z,9.82
2019-05-02T07:53:49.810Z,9.91
2019-05-02T07:54:56.244Z,9.91
2019-05-02T07:56:00.675Z,9.89
2019-05-02T07:57:05.421Z,10.05
2019-05-02T07:58:10.839Z,10.06
2019-05-02T07:59:18.610Z,10.09
2019-05-02T08:00:22.868Z,9.98
2019-05-02T08:01:27.326Z,9.98
2019-05-02T08:02:31.759Z,9.92
2019-05-02T08:03:36.198Z,10.01
2019-05-02T08:04:43.607Z,9.95
2019-05-02T08:05:46.797Z,10.01
2019-05-02T08:06:51.624Z,10.04
2019-05-02T08:07:56.069Z,9.97
2019-05-02T08:09:01.525Z,10.02
2019-05-02T08:10:09.880Z,10.06
2019-05-02T08:11:14.672Z,10.14
2019-05-02T08:12:19.120Z,10.13
2019-05-02T08:13:23.921Z,10.15
2019-05-02T08:14:29.414Z,10.16
2019-05-02T08:15:34.998Z,10.15
2019-05-02T08:16:39.456Z,10.21
2019-05-02T08:17:43.903Z,10.24
2019-05-02T08:18:48.349Z,10.31
2019-05-02T08:19:52.878Z,10.31
2019-05-02T08:20:57.457Z,10.28
2019-05-02T08:22:04.679Z,10.22
2019-05-02T08:23:08.003Z,10.32
2019-05-02T08:24:12.517Z,10.32
2019-05-02T08:25:17.114Z,10.48
2019-05-02T08:26:23.416Z,10.42
2019-05-02T08:27:34.664Z,10.58
2019-05-02T08:28:40.334Z,10.77
2019-05-02T08:29:44.760Z,10.64
2019-05-02T08:30:51.129Z,10.53
2019-05-02T08:31:55.590Z,10.54
2019-05-02T08:33:00.037Z,10.54
2019-05-02T08:34:05.189Z,10.60
2019-05-02T08:35:11.494Z,10.60
2019-05-02T08:36:16.306Z,10.78
2019-05-02T08:37:20.772Z,10.79
2019-05-02T08:38:25.210Z,10.80
2019-05-02T08:39:33.124Z,10.75
2019-05-02T08:40:36.145Z,10.81
2019-05-02T08:41:40.610Z,10.93
2019-05-02T08:42:45.340Z,10.88
2019-05-02T08:43:49.784Z,10.74
2019-05-02T08:44:56.432Z,10.84
2019-05-02T08:46:00.442Z,10.92
2019-05-02T08:47:17.827Z,10.98
2019-05-02T08:48:11.672Z,10.97
2019-05-02T08:49:18.815Z,10.77
2019-05-02T08:50:22.269Z,10.87
2019-05-02T08:51:26.696Z,10.80
2019-05-02T08:52:31.172Z,10.73
2019-05-02T08:53:35.621Z,10.84
2019-05-02T08:54:40.054Z,10.73
2019-05-02T08:55:45.283Z,10.81
2019-05-02T08:56:53.266Z,10.93
2019-05-02T08:57:56.799Z,10.88
2019-05-02T08:59:01.238Z,10.95
2019-05-02T09:00:08.188Z,10.95
2019-05-02T09:01:13.718Z,11.02
2019-05-02T09:02:21.041Z,10.95
2019-05-02T09:03:25.393Z,11.09
2019-05-02T09:04:30.738Z,11.02
2019-05-02T09:05:36.956Z,10.92
2019-05-02T09:06:41.504Z,11.03
2019-05-02T09:07:45.969Z,10.88
2019-05-02T09:08:51.278Z,10.88
2019-05-02T09:10:00.289Z,11.15
2019-05-02T09:11:02.700Z,11.22
2019-05-02T09:12:12.181Z,11.08
2019-05-02T09:13:15.852Z,11.17
2019-05-02T09:14:21.617Z,11.33
2019-05-02T09:15:25.642Z,11.40
2019-05-02T09:16:30.929Z,11.54
2019-05-02T09:17:38.979Z,11.45
2019-05-02T09:18:50.511Z,11.47
2019-05-02T09:19:59.558Z,11.57
2019-05-02T09:20:56.571Z,11.57
2019-05-02T09:22:02.585Z,11.51
2019-05-02T09:23:07.178Z,11.39
2019-05-02T09:24:15.846Z,11.35
2019-05-02T09:25:17.914Z,11.22
2019-05-02T09:26:35.082Z,11.27
2019-05-02T09:27:28.592Z,11.33
2019-05-02T09:28:33.035Z,11.28
2019-05-02T09:29:41.939Z,11.37
2019-05-02T09:30:46.598Z,11.41
2019-05-02T09:31:50.054Z,11.37
2019-05-02T09:32:57.289Z,11.36
2019-05-02T09:34:02.559Z,11.43
2019-05-02T09:35:07.028Z,11.45
2019-05-02T09:36:12.014Z,11.46
2019-05-02T09:37:16.443Z,11.51
2019-05-02T09:38:22.247Z,11.39
2019-05-02T09:39:27.276Z,11.32
2019-05-02T09:40:32.945Z,11.38
2019-05-02T09:41:37.737Z,11.42
2019-05-02T09:42:43.047Z,11.45
2019-05-02T09:43:48.639Z,11.45
2019-05-02T09:44:56.892Z,11.46
2019-05-02T09:45:59.540Z,11.34
2019-05-02T09:47:04.346Z,11.18
2019-05-02T09:48:09.769Z,11.19
2019-05-02T09:49:16.559Z,11.23
2019-05-02T09:50:26.551Z,11.11
2019-05-02T09:51:26.787Z,11.15
2019-05-02T09:52:32.177Z,11.19
2019-05-02T09:53:37.419Z,11.24
2019-05-02T09:54:45.984Z,11.34
2019-05-02T09:55:50.225Z,11.43
2019-05-02T09:56:54.432Z,11.44
2019-05-02T09:57:59.249Z,11.59
2019-05-02T09:59:23.359Z,11.55
2019-05-02T10:00:36.274Z,11.51
2019-05-02T10:01:42.157Z,11.59
2019-05-02T10:02:46.751Z,11.53
2019-05-02T10:03:51.868Z,11.62
2019-05-02T10:04:56.840Z,11.56
2019-05-02T10:06:03.089Z,11.55
2019-05-02T10:07:07.599Z,11.56
2019-05-02T10:08:13.817Z,11.57
2019-05-02T10:09:18.711Z,11.68
2019-05-02T10:10:24.589Z,11.50
2019-05-02T10:11:29.710Z,11.58
2019-05-02T10:12:34.597Z,11.53
2019-05-02T10:13:39.390Z,11.49
2019-05-02T10:14:44.217Z,11.58
2019-05-02T10:15:48.823Z,11.54
2019-05-02T10:16:57.632Z,11.52
2019-05-02T10:18:08.790Z,11.57
2019-05-02T10:19:10.626Z,11.61
2019-05-02T10:20:12.529Z,11.61
2019-05-02T10:21:17.350Z,11.67
2019-05-02T10:22:23.839Z,11.72
2019-05-02T10:23:28.507Z,11.84
2019-05-02T10:24:32.943Z,11.80
2019-05-02T10:25:38.934Z,11.83
2019-05-02T10:26:43.545Z,11.83
2019-05-02T10:27:48.046Z,11.87
2019-05-02T10:28:53.291Z,11.92
2019-05-02T10:30:08.131Z,11.83
2019-05-02T10:31:04.449Z,11.96
2019-05-02T10:32:15.013Z,11.91
2019-05-02T10:33:15.571Z,11.90
2019-05-02T10:34:20.524Z,11.91
2019-05-02T10:35:36.510Z,12.00
2019-05-02T10:36:34.551Z,12.05
2019-05-02T10:37:39.719Z,12.19
2019-05-02T10:38:44.309Z,12.19
2019-05-02T10:39:48.747Z,12.26
2019-05-02T10:40:59.304Z,12.25
2019-05-02T10:41:59.338Z,12.08
2019-05-02T10:43:03.866Z,12.01
2019-05-02T10:44:08.321Z,12.14
2019-05-02T10:45:16.740Z,12.29
2019-05-02T10:46:27.742Z,12.20
2019-05-02T10:47:32.801Z,12.07
2019-05-02T10:48:39.354Z,12.05
2019-05-02T10:49:47.889Z,12.08
2019-05-02T10:50:54.097Z,12.15
2019-05-02T10:51:58.902Z,12.27
2019-05-02T10:53:11.208Z,12.25
2019-05-02T10:54:11.580Z,12.22
2019-05-02T10:55:15.825Z,12.21
2019-05-02T10:56:22.135Z,12.30
2019-05-02T10:57:26.662Z,12.26
2019-05-02T10:58:35.560Z,12.39
2019-05-02T10:59:37.333Z,12.34
2019-05-02T11:00:45.236Z,12.11
2019-05-02T11:02:06.123Z,12.10
2019-05-02T11:03:31.970Z,12.07
2019-05-02T11:04:38.242Z,12.11
2019-05-02T11:05:52.548Z,12.26
2019-05-02T11:06:57.575Z,12.18
2019-05-02T11:08:06.133Z,12.07
2019-05-02T11:09:12.043Z,12.02
2019-05-02T11:10:17.473Z,12.16
2019-05-02T11:11:22.378Z,12.19
2019-05-02T11:12:46.898Z,12.30
2019-05-02T11:13:53.460Z,12.23
2019-05-02T11:14:59.308Z,12.33
2019-05-02T11:16:05.458Z,12.39
2019-05-02T11:17:17.995Z,12.29
2019-05-02T11:18:39.391Z,12.21
2019-05-02T11:19:32.061Z,12.21
2019-05-02T11:20:36.792Z,12.20
2019-05-02T11:21:53.461Z,12.09
2019-05-02T11:22:47.656Z,12.09
2019-05-02T11:23:52.687Z,12.09
2019-05-02T11:24:57.535Z,12.12
2019-05-02T11:26:01.970Z,12.17
2019-05-02T11:27:08.215Z,12.33
2019-05-02T11:28:12.731Z,12.21
2019-05-02T11:29:17.177Z,12.14
2019-05-02T11:30:26.402Z,12.23
2019-05-02T11:31:27.844Z,12.44
2019-05-02T11:32:32.746Z,12.59
2019-05-02T11:33:37.594Z,12.74
2019-05-02T11:34:42.152Z,13.03
2019-05-02T11:35:48.928Z,13.21
2019-05-02T11:36:52.863Z,13.12
2019-05-02T11:37:57.245Z,13.25
2019-05-02T11:39:09.967Z,13.10
2019-05-02T11:40:12.701Z,13.01
2019-05-02T11:41:16.150Z,13.25
2019-05-02T11:42:23.259Z,13.30
2019-05-02T11:43:26.736Z,13.48
2019-05-02T11:44:32.635Z,13.39
2019-05-02T11:45:37.234Z,13.47
2019-05-02T11:46:45.616Z,13.44
2019-05-02T11:47:47.879Z,13.41
2019-05-02T11:48:56.253Z,13.42
2019-05-02T11:49:58.781Z,13.33
2019-05-02T11:51:07.326Z,12.90
2019-05-02T11:52:11.742Z,12.91
2019-05-02T11:53:28.458Z,12.92
2019-05-02T11:54:22.809Z,13.06
2019-05-02T11:55:29.148Z,13.22
2019-05-02T11:56:33.679Z,13.21
2019-05-02T11:57:39.098Z,13.10
2019-05-02T11:58:48.168Z,12.95
2019-05-02T11:59:51.958Z,12.90
2019-05-02T12:00:56.265Z,13.13
2019-05-02T12:02:09.506Z,13.17
2019-05-02T12:03:16.597Z,13.41
2019-05-02T12:04:21.542Z,13.45
2019-05-02T12:05:31.840Z,13.60
2019-05-02T12:06:33.949Z,13.60
2019-05-02T12:07:38.390Z,13.38
2019-05-02T12:08:47.673Z,13.48
2019-05-02T12:09:55.139Z,13.41
2019-05-02T12:10:55.453Z,13.38
2019-05-02T12:11:59.895Z,13.56
2019-05-02T12:13:06.695Z,13.40
2019-05-02T12:14:12.310Z,13.38
2019-05-02T12:15:17.240Z,13.42
2019-05-02T12:16:22.890Z,13.50
2019-05-02T12:17:27.881Z,13.50
2019-05-02T12:18:32.633Z,13.28
2019-05-02T12:19:37.048Z,13.27
2019-05-02T12:20:42.524Z,13.52
2019-05-02T12:21:57.373Z,13.44
2019-05-02T12:23:02.065Z,13.61
2019-05-02T12:24:07.717Z,13.34
2019-05-02T12:25:12.778Z,13.55
2019-05-02T12:26:17.669Z,13.28
2019-05-02T12:27:22.246Z,13.37
2019-05-02T12:28:27.017Z,13.39
2019-05-02T12:29:33.388Z,13.29
2019-05-02T12:30:45.835Z,13.27
2019-05-02T12:31:54.791Z,13.22
2019-05-02T12:32:56.492Z,13.24
2019-05-02T12:34:02.675Z,13.22
2019-05-02T12:35:07.450Z,13.29
2019-05-02T12:36:12.104Z,13.24
2019-05-02T12:37:16.493Z,13.09
2019-05-02T12:38:22.923Z,13.08
2019-05-02T12:39:27.077Z,13.29
2019-05-02T12:40:32.589Z,13.39
2019-05-02T12:41:37.407Z,13.38
2019-05-02T12:42:42.154Z,13.29
2019-05-02T12:43:46.602Z,13.33
2019-05-02T12:44:53.148Z,13.32
2019-05-02T12:45:58.017Z,13.37
2019-05-02T12:47:02.708Z,13.27
2019-05-02T12:48:08.511Z,13.15
2019-05-02T12:49:24.443Z,12.96
2019-05-02T12:50:22.492Z,13.06
2019-05-02T12:51:27.023Z,13.01
2019-05-02T12:52:32.049Z,13.04
2019-05-02T12:53:36.863Z,13.08
2019-05-02T12:54:41.710Z,13.04
2019-05-02T12:55:46.289Z,13.09
2019-05-02T12:56:52.850Z,13.06
2019-05-02T12:57:57.708Z,13.14
2019-05-02T12:59:02.665Z,13.21
2019-05-02T13:00:08.472Z,13.34
2019-05-02T13:01:13.001Z,13.24
2019-05-02T13:02:21.741Z,13.26
2019-05-02T13:03:43.623Z,13.27
2019-05-02T13:04:48.570Z,13.17
2019-05-02T13:05:53.045Z,13.19
2019-05-02T13:06:57.752Z,13.30
2019-05-02T13:08:02.624Z,13.42
2019-05-02T13:09:12.890Z,13.38
2019-05-02T13:10:19.528Z,13.52
2019-05-02T13:11:29.276Z,13.85
2019-05-02T13:12:38.547Z,13.89
2019-05-02T13:13:43.634Z,13.91
2019-05-02T13:14:49.173Z,13.83
2019-05-02T13:15:53.614Z,13.76
2019-05-02T13:17:01.386Z,13.97
2019-05-02T13:18:04.565Z,13.97
2019-05-02T13:19:09.249Z,13.78
2019-05-02T13:20:15.571Z,13.71
2019-05-02T13:21:40.142Z,13.60
2019-05-02T13:22:38.501Z,13.50
2019-05-02T13:23:48.009Z,13.66
2019-05-02T13:24:54.910Z,13.77
2019-05-02T13:26:02.350Z,13.94
2019-05-02T13:27:08.616Z,13.78
2019-05-02T13:28:17.091Z,14.02
2019-05-02T13:29:19.340Z,14.06
2019-05-02T13:30:25.690Z,14.15
2019-05-02T13:31:32.158Z,14.21
2019-05-02T13:32:38.316Z,14.09
2019-05-02T13:34:01.957Z,14.29
2019-05-02T13:35:10.292Z,14.06
2019-05-02T13:36:36.968Z,13.96
2019-05-02T13:37:42.399Z,13.88
2019-05-02T13:38:46.862Z,13.63
2019-05-02T13:39:53.491Z,13.56
2019-05-02T13:40:57.939Z,13.52
2019-05-02T13:42:02.475Z,13.57
2019-05-02T13:43:06.981Z,13.78
2019-05-02T13:44:13.348Z,13.65
2019-05-02T13:45:34.537Z,13.61
2019-05-02T13:46:38.996Z,13.61
2019-05-02T13:47:43.825Z,13.66
2019-05-02T13:48:48.274Z,13.82
2019-05-02T13:49:56.791Z,14.00
2019-05-02T13:50:59.124Z,13.90
2019-05-02T13:52:03.590Z,14.32
2019-05-02T13:53:08.029Z,14.49
2019-05-02T13:54:12.676Z,14.59
2019-05-02T13:55:18.877Z,14.69
2019-05-02T13:56:24.954Z,14.66
2019-05-02T13:57:29.420Z,14.60
2019-05-02T13:58:34.175Z,14.62
2019-05-02T13:59:38.686Z,14.79
2019-05-02T14:00:47.409Z,14.76
2019-05-02T14:01:53.659Z,14.40
2019-05-02T14:02:58.233Z,14.51
2019-05-02T14:04:05.498Z,14.43
2019-05-02T14:05:13.505Z,14.51
2019-05-02T14:06:21.999Z,14.66
2019-05-02T14:07:24.121Z,14.50
2019-05-02T14:08:35.073Z,14.26
2019-05-02T14:09:44.171Z,13.91
2019-05-02T14:10:50.278Z,13.70
2019-05-02T14:12:12.172Z,13.67
2019-05-02T14:13:16.612Z,13.78
2019-05-02T14:14:22.800Z,13.89
2019-05-02T14:15:28.917Z,13.73
2019-05-02T14:16:33.358Z,13.73
2019-05-02T14:17:37.819Z,13.76
2019-05-02T14:18:42.537Z,13.71
2019-05-02T14:19:47.270Z,13.72
2019-05-02T14:20:52.966Z,13.66
2019-05-02T14:21:57.408Z,13.53
2019-05-02T14:23:02.260Z,13.71
2019-05-02T14:24:07.133Z,13.74
2019-05-02T14:25:12.340Z,13.67